• Join FlightAware (Why Join?)
  • Login
  • US Flag 
11:15AM EDT


 

Airport Tracker/Info


-or-


 

Live Flight TrackerFlight Track Log ✈ BJS542 ✈ 15-Aug-2013 ✈ KTYQ - KMDW

Flight Track Log - Related Links

Times and Time Zones

All times are in EDT time to prevent confusion due to time zone crossing. See the BJS542 flight status page for this flight to view local times or setup timezone preferences in your user account.

Time Position Orientation Groundspeed Altitude Reporting Facility
EDT Latitude Longitude Course Direction KTS MPH feet Rate Location/Type
03:04PM 40.0500 -86.2500 360° North 163 188 2,200  Level Indianapolis TRACON
03:05PM 40.0833 -86.2500 360° North 177 204 3,000 1,080 Climbing Indianapolis TRACON
03:05PM 40.1028 -86.2567 345° North 197 227 3,400 1,620 Climbing Chicago Center
03:06PM 40.1406 -86.2489 North 214 246 4,900 3,420 Climbing Indianapolis Center
03:07PM 40.2125 -86.2494 360° North 247 284 9,100 4,440 Climbing Indianapolis Center
03:08PM 40.3089 -86.1989 22° Northeast 310 357 14,100 3,840 Climbing Indianapolis Center
03:09PM 40.4003 -86.1422 25° Northeast 352 405 17,200 2,280 Climbing Indianapolis Center
03:10PM 40.5042 -86.1058 15° North 386 444 19,000 840 Climbing Indianapolis Center
03:11PM 40.5992 -86.1633 335° Northwest 381 438 19,000 -300 Level Indianapolis Center
03:12PM 40.6953 -86.2206 336° Northwest 381 438 18,500 -1,260 Descending Indianapolis Center
03:13PM 40.7886 -86.2769 335° Northwest 375 432 16,500 -2,040 Descending Indianapolis Center
03:14PM 40.8953 -86.3397 336° Northwest 361 415 14,300 -2,040 Descending Indianapolis Center
03:15PM 40.9825 -86.3922 336° Northwest 353 406 12,400 -1,680 Descending Indianapolis Center
03:16PM 41.0581 -86.4556 328° Northwest 336 387 11,000 -1,020 Descending Indianapolis Center
03:17PM 41.0992 -86.5514 300° West 314 361 10,300 -480 Descending Indianapolis Center
03:18PM 41.1408 -86.6411 302° West 297 342 10,000 -180 Descending Indianapolis Center
03:19PM 41.2150 -86.7197 321° Northwest 288 331 10,000  Level Indianapolis Center
03:21PM 41.2967 -86.8142 319° Northwest 285 328 10,000 -300 Level Chicago Center
03:22PM 41.3550 -86.8811 319° Northwest 280 322 9,300 -1,020 Descending Chicago Center
03:23PM 41.4106 -86.9469 318° Northwest 272 313 8,000 -1,440 Descending Chicago Center
03:24PM 41.4686 -87.0386 310° West 277 319 6,400 -1,020 Descending Chicago Center
03:25PM 41.4986 -87.1292 294° West 270 311 6,000 -240 Descending Chicago Center
03:26PM 41.5281 -87.2233 293° West 275 316 6,000 -60 Level Chicago Center
03:27PM 41.5583 -87.3144 294° West 273 314 5,900 -540 Descending Chicago Center
03:28PM 41.5864 -87.4050 293° West 268 308 5,000 -480 Descending Chicago Center
03:29PM 41.6211 -87.5119 294° West 266 306 5,000 -300 Level Chicago Center
03:30PM 41.6528 -87.5667 308° West 217 250 4,500 -840 Descending Chicago Center
03:31PM 41.6881 -87.6167 313° West 195 224 3,300 -1,080 Descending Chicago Center
03:32PM 41.7222 -87.6642 314° West 186 214 2,300 -900 Descending Chicago Center
03:33PM 41.7533 -87.7083 313° West 177 204 1,500 -660 Descending Chicago Center
03:34PM 41.7853 -87.7536 313° West 168 193 1,000 -540 Descending Chicago Center